createdAt,value
2022-10-07T00:00:54.202Z,9.23
2022-10-07T00:03:22.485Z,9.39
2022-10-07T00:06:03.561Z,9.48
2022-10-07T00:08:30.511Z,9.22
2022-10-07T00:10:57.399Z,9.32
2022-10-07T00:13:24.396Z,9.23
2022-10-07T00:15:50.860Z,9.09
2022-10-07T00:18:17.361Z,9.15
2022-10-07T00:20:43.820Z,8.97
2022-10-07T00:23:10.337Z,9.12
2022-10-07T00:25:37.812Z,9.22
2022-10-07T00:28:05.140Z,8.95
2022-10-07T00:30:31.773Z,9.18
2022-10-07T00:32:58.359Z,9.06
2022-10-07T00:35:24.776Z,9.27
2022-10-07T00:37:51.223Z,8.98
2022-10-07T00:40:17.659Z,9.05
2022-10-07T00:42:44.388Z,9.00
2022-10-07T00:45:15.913Z,9.09
2022-10-07T00:47:47.205Z,8.94
2022-10-07T00:50:40.291Z,9.08
2022-10-07T00:53:07.236Z,9.24
2022-10-07T00:55:33.693Z,9.32
2022-10-07T00:58:08.702Z,9.22
2022-10-07T01:00:36.715Z,9.20
2022-10-07T01:03:04.852Z,9.42
2022-10-07T01:05:31.730Z,9.06
2022-10-07T01:07:59.538Z,9.14
2022-10-07T01:10:34.190Z,9.05
2022-10-07T01:13:40.431Z,9.20
2022-10-07T01:16:21.598Z,9.21
2022-10-07T01:19:08.268Z,8.88
2022-10-07T01:22:15.875Z,8.99
2022-10-07T01:25:13.009Z,8.99
2022-10-07T01:27:47.120Z,9.11
2022-10-07T01:30:13.803Z,9.07
2022-10-07T01:32:53.068Z,9.10
2022-10-07T01:35:25.237Z,9.04
2022-10-07T01:37:55.522Z,9.18
2022-10-07T01:40:27.358Z,9.01
2022-10-07T01:42:55.264Z,8.82
2022-10-07T01:45:24.881Z,9.09
2022-10-07T01:47:51.841Z,8.96
2022-10-07T01:50:22.296Z,8.85
2022-10-07T01:53:03.892Z,8.93
2022-10-07T01:55:44.513Z,9.10
2022-10-07T01:58:39.560Z,8.96
2022-10-07T02:01:14.433Z,8.70
2022-10-07T02:04:13.244Z,8.83
2022-10-07T02:06:49.040Z,8.83
2022-10-07T02:09:40.531Z,9.01
2022-10-07T02:12:32.556Z,8.75
2022-10-07T02:15:08.401Z,8.89
2022-10-07T02:17:42.637Z,8.69
2022-10-07T02:20:11.581Z,8.83
2022-10-07T02:22:40.968Z,9.03
2022-10-07T02:25:09.921Z,8.96
2022-10-07T02:27:39.081Z,8.66
2022-10-07T02:30:18.517Z,8.54
2022-10-07T02:32:48.635Z,8.65
2022-10-07T02:35:23.325Z,8.64
2022-10-07T02:37:53.437Z,8.71
2022-10-07T02:40:24.511Z,8.82
2022-10-07T02:42:59.473Z,8.95
2022-10-07T02:45:36.526Z,8.84
2022-10-07T02:48:15.053Z,8.87
2022-10-07T02:50:47.648Z,8.61
2022-10-07T02:53:16.018Z,8.71
2022-10-07T02:55:44.355Z,8.60
2022-10-07T02:58:12.905Z,8.37
2022-10-07T03:00:43.236Z,8.46
2022-10-07T03:03:09.848Z,8.37
2022-10-07T03:05:36.853Z,8.59
2022-10-07T03:08:07.563Z,8.61
2022-10-07T03:10:34.325Z,8.54
2022-10-07T03:13:01.741Z,8.67
2022-10-07T03:15:28.161Z,8.40
2022-10-07T03:17:54.651Z,8.67
2022-10-07T03:20:20.993Z,8.61
2022-10-07T03:22:47.369Z,8.53
2022-10-07T03:25:15.435Z,8.65
2022-10-07T03:27:42.999Z,8.53
2022-10-07T03:30:10.809Z,8.59
2022-10-07T03:32:38.922Z,8.63
2022-10-07T03:35:06.133Z,8.66
2022-10-07T03:37:32.476Z,8.62
2022-10-07T03:39:58.872Z,8.64
2022-10-07T03:42:25.209Z,8.77
2022-10-07T03:44:52.279Z,8.65
2022-10-07T03:47:18.647Z,8.53
2022-10-07T03:49:45.095Z,8.61
2022-10-07T03:52:11.805Z,8.63
2022-10-07T03:54:38.180Z,8.49
2022-10-07T03:57:24.540Z,8.50
2022-10-07T03:59:53.618Z,8.43
2022-10-07T04:02:23.377Z,8.34
2022-10-07T04:04:52.707Z,8.54
2022-10-07T04:07:21.356Z,8.51
2022-10-07T04:09:47.723Z,8.52
2022-10-07T04:12:14.056Z,8.52
2022-10-07T04:14:40.506Z,8.53
2022-10-07T04:17:06.885Z,8.38
2022-10-07T04:19:33.760Z,8.35
2022-10-07T04:22:01.313Z,8.19
2022-10-07T04:24:29.310Z,8.37
2022-10-07T04:26:55.639Z,8.34
2022-10-07T04:29:22.025Z,8.22
2022-10-07T04:31:48.408Z,7.93
2022-10-07T04:34:14.820Z,8.14
2022-10-07T04:36:41.257Z,8.20
2022-10-07T04:39:07.832Z,8.25
2022-10-07T04:41:34.157Z,8.12
2022-10-07T04:44:00.645Z,8.04
2022-10-07T04:46:28.291Z,8.08
2022-10-07T04:48:54.933Z,8.11
2022-10-07T04:51:22.597Z,8.06
2022-10-07T04:53:56.694Z,8.16
2022-10-07T04:56:23.716Z,8.03
2022-10-07T04:58:50.092Z,8.08
2022-10-07T05:01:16.604Z,8.14
2022-10-07T05:03:43.011Z,8.04
2022-10-07T05:06:09.860Z,8.06
2022-10-07T05:08:36.519Z,8.02
2022-10-07T05:11:03.571Z,8.09
2022-10-07T05:13:30.233Z,8.06
2022-10-07T05:16:01.503Z,7.96
2022-10-07T05:18:29.371Z,8.07
2022-10-07T05:20:56.507Z,7.99
2022-10-07T05:23:28.050Z,7.98
2022-10-07T05:26:00.281Z,8.14
2022-10-07T05:28:27.140Z,7.90
2022-10-07T05:31:11.624Z,7.92
2022-10-07T05:33:38.651Z,7.95
2022-10-07T05:36:06.971Z,8.05
2022-10-07T05:38:33.995Z,8.04
2022-10-07T05:41:02.633Z,7.89
2022-10-07T05:43:31.650Z,8.04
2022-10-07T05:46:06.578Z,7.98
2022-10-07T05:48:38.952Z,7.97
2022-10-07T05:51:08.103Z,8.02
2022-10-07T05:53:34.853Z,7.95
2022-10-07T05:56:06.181Z,8.00
2022-10-07T05:58:32.520Z,7.96
2022-10-07T06:01:04.823Z,8.06
2022-10-07T06:03:33.421Z,8.03
2022-10-07T06:06:02.688Z,8.07
2022-10-07T06:08:29.477Z,8.02
2022-10-07T06:11:19.951Z,8.06
2022-10-07T06:13:50.835Z,8.07
2022-10-07T06:16:17.254Z,8.11
2022-10-07T06:18:43.797Z,8.15
2022-10-07T06:21:11.237Z,8.09
2022-10-07T06:23:37.649Z,8.07
2022-10-07T06:26:06.559Z,8.20
2022-10-07T06:28:37.237Z,8.26
2022-10-07T06:31:08.384Z,8.20
2022-10-07T06:33:35.188Z,8.17
2022-10-07T06:36:10.787Z,8.17
2022-10-07T06:38:37.285Z,8.21
2022-10-07T06:41:05.423Z,8.24
2022-10-07T06:43:33.742Z,8.33
2022-10-07T06:46:04.618Z,8.47
2022-10-07T06:48:32.999Z,8.42
2022-10-07T06:51:03.196Z,8.38
2022-10-07T06:53:30.545Z,8.50
2022-10-07T06:56:01.740Z,8.44
2022-10-07T06:58:28.440Z,8.46
2022-10-07T07:00:54.887Z,8.58
2022-10-07T07:03:21.743Z,8.60
2022-10-07T07:05:49.742Z,8.64
2022-10-07T07:08:24.174Z,8.63
2022-10-07T07:10:50.526Z,8.69
2022-10-07T07:13:17.886Z,8.73
2022-10-07T07:15:59.987Z,8.71
2022-10-07T07:18:26.704Z,8.89
2022-10-07T07:20:53.045Z,8.88
2022-10-07T07:23:19.428Z,8.93
2022-10-07T07:25:46.290Z,8.98
2022-10-07T07:28:15.519Z,9.02
2022-10-07T07:30:42.213Z,9.06
2022-10-07T07:33:08.881Z,9.07
2022-10-07T07:35:41.196Z,9.13
2022-10-07T07:38:07.910Z,9.24
2022-10-07T07:40:37.525Z,9.46
2022-10-07T07:43:05.659Z,9.77
2022-10-07T07:45:33.062Z,9.90
2022-10-07T07:48:00.424Z,9.70
2022-10-07T07:50:27.419Z,9.56
2022-10-07T07:52:57.325Z,9.46
2022-10-07T07:55:24.402Z,9.48
2022-10-07T07:57:50.801Z,9.51
2022-10-07T08:00:17.307Z,9.61
2022-10-07T08:02:43.817Z,9.78
2022-10-07T08:05:10.275Z,9.85
2022-10-07T08:07:36.729Z,9.84
2022-10-07T08:10:03.345Z,9.91
2022-10-07T08:12:32.164Z,9.97
2022-10-07T08:14:58.630Z,9.95
2022-10-07T08:17:25.244Z,10.08
2022-10-07T08:19:51.629Z,10.21
2022-10-07T08:22:18.024Z,10.14
2022-10-07T08:24:44.431Z,10.30
2022-10-07T08:27:10.816Z,10.47
2022-10-07T08:29:37.923Z,10.65
2022-10-07T08:32:04.306Z,10.72
2022-10-07T08:34:30.661Z,10.65
2022-10-07T08:36:57.203Z,10.69
2022-10-07T08:39:24.627Z,10.64
2022-10-07T08:42:13.191Z,10.63
2022-10-07T08:44:49.632Z,10.62
2022-10-07T08:47:34.733Z,10.66
2022-10-07T08:50:22.450Z,10.72
2022-10-07T08:52:55.095Z,10.84
2022-10-07T08:55:39.655Z,10.84
2022-10-07T08:58:27.176Z,10.97
2022-10-07T09:01:17.523Z,11.13
2022-10-07T09:04:02.565Z,11.17
2022-10-07T09:06:35.881Z,11.31
2022-10-07T09:09:11.553Z,11.35
2022-10-07T09:11:41.891Z,11.48
2022-10-07T09:14:29.277Z,11.59
2022-10-07T09:17:02.287Z,11.67
2022-10-07T09:19:36.169Z,11.80
2022-10-07T09:22:11.504Z,11.89
2022-10-07T09:24:38.100Z,11.91
2022-10-07T09:27:13.209Z,11.99
2022-10-07T09:29:39.781Z,12.00
2022-10-07T09:32:06.162Z,12.07
2022-10-07T09:34:32.516Z,12.19
2022-10-07T09:37:20.858Z,12.29
2022-10-07T09:39:53.085Z,12.33
2022-10-07T09:42:28.730Z,12.43
2022-10-07T09:44:57.677Z,12.52
2022-10-07T09:47:26.420Z,12.59
2022-10-07T09:49:56.488Z,12.65
2022-10-07T09:52:25.291Z,12.73
2022-10-07T09:54:54.365Z,12.78
2022-10-07T09:57:34.940Z,12.80
2022-10-07T10:00:13.446Z,12.91
2022-10-07T10:02:43.202Z,12.93
2022-10-07T10:05:21.315Z,12.96
2022-10-07T10:07:48.527Z,13.12
2022-10-07T10:10:22.798Z,13.24
2022-10-07T10:12:51.753Z,13.21
2022-10-07T10:15:21.126Z,13.25
2022-10-07T10:17:48.006Z,13.25
2022-10-07T10:20:23.574Z,13.29
2022-10-07T10:22:50.768Z,13.27
2022-10-07T10:25:44.297Z,13.33
2022-10-07T10:28:38.597Z,13.36
2022-10-07T10:31:25.657Z,13.46
2022-10-07T10:34:07.184Z,13.49
2022-10-07T10:36:35.859Z,13.67
2022-10-07T10:39:29.939Z,13.79
2022-10-07T10:42:01.082Z,13.86
2022-10-07T10:44:48.629Z,13.87
2022-10-07T10:47:33.804Z,14.08
2022-10-07T10:50:39.369Z,14.29
2022-10-07T10:53:13.518Z,14.31
2022-10-07T10:56:04.348Z,14.61
2022-10-07T10:59:01.915Z,14.89
2022-10-07T11:01:37.416Z,15.08
2022-10-07T11:04:36.206Z,15.62
2022-10-07T11:07:27.360Z,15.55
2022-10-07T11:10:25.518Z,15.81
2022-10-07T11:12:58.609Z,15.57
2022-10-07T11:15:34.211Z,15.80
2022-10-07T11:18:14.099Z,16.27
2022-10-07T11:20:47.797Z,15.89
2022-10-07T11:23:44.308Z,16.55
2022-10-07T11:26:21.095Z,17.02
2022-10-07T11:28:50.268Z,16.80
2022-10-07T11:31:33.659Z,16.60
2022-10-07T11:34:18.905Z,16.23
2022-10-07T11:36:48.207Z,16.30
2022-10-07T11:39:15.415Z,16.15
2022-10-07T11:41:50.801Z,16.69
2022-10-07T11:44:32.956Z,16.45
2022-10-07T11:47:03.143Z,16.54
2022-10-07T11:49:39.381Z,16.44
2022-10-07T11:52:24.335Z,16.31
2022-10-07T11:55:02.821Z,16.22
2022-10-07T11:57:36.164Z,16.80
2022-10-07T12:00:08.074Z,16.40
2022-10-07T12:02:45.012Z,17.41
2022-10-07T12:05:33.651Z,17.63
2022-10-07T12:08:03.351Z,17.65
2022-10-07T12:10:32.187Z,17.83
2022-10-07T12:13:01.660Z,17.67
2022-10-07T12:15:38.692Z,18.13
2022-10-07T12:18:05.009Z,18.03
2022-10-07T12:20:37.665Z,18.40
2022-10-07T12:23:28.306Z,18.15
2022-10-07T12:25:59.887Z,18.07
2022-10-07T12:28:28.265Z,18.39
2022-10-07T12:31:00.165Z,18.32
2022-10-07T12:33:45.046Z,18.25
2022-10-07T12:36:21.232Z,18.15
2022-10-07T12:39:11.713Z,18.11
2022-10-07T12:41:42.987Z,17.67
2022-10-07T12:44:19.549Z,17.89
2022-10-07T12:46:51.181Z,18.47
2022-10-07T12:49:36.816Z,18.38
2022-10-07T12:52:07.531Z,18.63
2022-10-07T12:54:39.986Z,18.28
2022-10-07T12:57:12.992Z,18.50
2022-10-07T12:59:58.392Z,18.64
2022-10-07T13:03:03.442Z,18.37
2022-10-07T13:05:56.960Z,18.25
2022-10-07T13:08:42.237Z,18.90
2022-10-07T13:11:23.869Z,18.61
2022-10-07T13:14:10.391Z,18.82
2022-10-07T13:17:15.769Z,18.83
2022-10-07T13:20:04.011Z,18.81
2022-10-07T13:22:31.408Z,18.56
2022-10-07T13:24:59.046Z,18.03
2022-10-07T13:27:27.849Z,17.48
2022-10-07T13:29:56.219Z,17.64
2022-10-07T13:32:30.163Z,17.63
2022-10-07T13:34:58.521Z,17.80
2022-10-07T13:37:35.523Z,17.88
2022-10-07T13:40:35.583Z,17.86
2022-10-07T13:43:06.976Z,17.50
2022-10-07T13:45:45.077Z,17.74
2022-10-07T13:48:35.125Z,17.97
2022-10-07T13:51:02.789Z,17.63
2022-10-07T13:53:37.307Z,17.23
2022-10-07T13:56:29.992Z,17.44
2022-10-07T13:58:57.641Z,17.44
2022-10-07T14:01:27.658Z,17.36
2022-10-07T14:04:21.468Z,17.84
2022-10-07T14:06:49.539Z,17.48
2022-10-07T14:09:37.080Z,17.10
2022-10-07T14:12:06.849Z,17.18
2022-10-07T14:14:39.454Z,17.20
2022-10-07T14:17:16.950Z,17.47
2022-10-07T14:19:43.558Z,17.40
2022-10-07T14:22:23.882Z,17.56
2022-10-07T14:25:00.485Z,17.63
2022-10-07T14:27:45.813Z,17.67
2022-10-07T14:30:56.394Z,17.74
2022-10-07T14:33:53.616Z,17.77
2022-10-07T14:36:21.887Z,17.65
2022-10-07T14:38:50.385Z,17.50
2022-10-07T14:41:19.789Z,17.68
2022-10-07T14:43:48.563Z,17.66
2022-10-07T14:46:24.117Z,17.50
2022-10-07T14:48:52.262Z,17.27
2022-10-07T14:51:22.202Z,17.26
2022-10-07T14:53:52.509Z,17.27
2022-10-07T14:56:26.169Z,17.03
2022-10-07T14:58:54.065Z,16.95
2022-10-07T15:01:20.936Z,16.88
2022-10-07T15:23:54.363Z,15.96
2022-10-07T15:26:24.149Z,15.93
2022-10-07T15:28:55.010Z,15.94
2022-10-07T15:31:26.728Z,15.92
2022-10-07T15:33:56.964Z,15.84
2022-10-07T15:36:25.407Z,15.74
2022-10-07T15:38:51.720Z,15.66
2022-10-07T15:41:39.376Z,15.68
2022-10-07T15:44:12.168Z,15.76
2022-10-07T15:46:38.677Z,15.58
2022-10-07T15:49:05.535Z,15.60
2022-10-07T15:51:32.134Z,15.61
2022-10-07T15:53:58.955Z,15.53
2022-10-07T15:56:28.511Z,15.57
2022-10-07T15:58:55.110Z,15.57
2022-10-07T16:01:21.734Z,15.64
2022-10-07T16:03:49.164Z,15.58
2022-10-07T16:06:27.530Z,15.52
2022-10-07T16:08:55.570Z,15.51
2022-10-07T16:11:22.003Z,15.28
2022-10-07T16:13:49.020Z,15.21
2022-10-07T16:16:20.836Z,15.21
2022-10-07T16:18:48.814Z,15.12
2022-10-07T16:21:24.238Z,15.27
2022-10-07T16:23:54.663Z,15.23
2022-10-07T16:26:24.696Z,15.05
2022-10-07T16:29:11.059Z,15.07
2022-10-07T16:31:40.412Z,15.16
2022-10-07T16:34:07.729Z,15.19
2022-10-07T16:36:35.885Z,15.04
2022-10-07T16:39:04.324Z,15.01
2022-10-07T16:41:31.534Z,15.16
2022-10-07T16:43:59.234Z,15.20
2022-10-07T16:46:26.482Z,14.96
2022-10-07T16:48:52.963Z,14.88
2022-10-07T16:51:22.361Z,14.89
2022-10-07T16:53:50.228Z,14.97
2022-10-07T16:56:18.203Z,14.99
2022-10-07T16:58:45.391Z,14.92
2022-10-07T17:01:14.906Z,14.91
2022-10-07T17:03:49.803Z,14.89
2022-10-07T17:06:18.337Z,14.81
2022-10-07T17:08:48.309Z,14.83
2022-10-07T17:11:29.955Z,14.81
2022-10-07T17:14:09.749Z,14.80
2022-10-07T17:16:42.844Z,14.75
2022-10-07T17:19:12.560Z,14.77
2022-10-07T17:21:41.000Z,14.71
2022-10-07T17:24:08.548Z,14.63
2022-10-07T17:26:35.233Z,14.71
2022-10-07T17:29:07.428Z,14.65
2022-10-07T17:31:36.415Z,14.69
2022-10-07T17:34:03.312Z,14.65
2022-10-07T17:36:31.332Z,14.58
2022-10-07T17:38:58.809Z,14.56
2022-10-07T17:41:27.476Z,14.64
2022-10-07T17:43:55.884Z,14.56
2022-10-07T17:46:23.819Z,14.45
2022-10-07T17:48:52.304Z,14.64
2022-10-07T17:51:20.774Z,14.54
2022-10-07T17:53:51.104Z,14.59
2022-10-07T17:56:17.490Z,14.48
2022-10-07T17:58:45.811Z,14.56
2022-10-07T18:01:23.441Z,14.33
2022-10-07T18:03:51.937Z,14.30
2022-10-07T18:06:18.876Z,14.36
2022-10-07T18:08:45.210Z,14.39
2022-10-07T18:11:11.658Z,14.27
2022-10-07T18:13:56.541Z,14.32
2022-10-07T18:16:23.156Z,14.26
2022-10-07T18:18:56.620Z,14.21
2022-10-07T18:21:24.053Z,14.10
2022-10-07T18:23:54.356Z,14.21
2022-10-07T18:26:20.716Z,14.10
2022-10-07T18:28:47.154Z,14.08
2022-10-07T18:31:16.004Z,14.09
2022-10-07T18:33:43.502Z,14.16
2022-10-07T18:36:13.241Z,14.16
2022-10-07T18:38:41.787Z,13.60
2022-10-07T18:41:11.029Z,13.93
2022-10-07T18:43:38.001Z,13.60
2022-10-07T18:46:08.251Z,13.89
2022-10-07T18:48:37.065Z,13.91
2022-10-07T18:51:03.914Z,14.04
2022-10-07T18:53:33.211Z,14.03
2022-10-07T18:56:01.296Z,13.81
2022-10-07T18:58:27.827Z,14.05
2022-10-07T19:00:54.520Z,14.01
2022-10-07T19:03:21.033Z,13.67
2022-10-07T19:05:47.397Z,13.60
2022-10-07T19:08:13.796Z,13.66
2022-10-07T19:10:41.775Z,13.69
2022-10-07T19:13:31.300Z,13.59
2022-10-07T19:15:57.684Z,13.68
2022-10-07T19:18:25.338Z,13.66
2022-10-07T19:20:56.301Z,13.86
2022-10-07T19:23:22.856Z,13.75
2022-10-07T19:25:49.226Z,13.75
2022-10-07T19:28:15.622Z,13.82
2022-10-07T19:30:44.254Z,13.73
2022-10-07T19:33:11.345Z,13.66
2022-10-07T19:35:38.033Z,13.52
2022-10-07T19:38:06.092Z,13.67
2022-10-07T19:40:42.625Z,13.50
2022-10-07T19:43:10.667Z,13.51
2022-10-07T19:45:39.150Z,13.44
2022-10-07T19:48:11.687Z,13.35
2022-10-07T19:50:40.271Z,13.35
2022-10-07T19:53:06.727Z,13.21
2022-10-07T19:55:33.514Z,13.09
2022-10-07T19:58:02.247Z,13.12
2022-10-07T20:00:30.766Z,12.75
2022-10-07T20:02:57.706Z,12.90
2022-10-07T20:05:28.423Z,13.06
2022-10-07T20:07:58.915Z,12.97
2022-10-07T20:10:26.592Z,12.98
2022-10-07T20:12:53.102Z,12.88
2022-10-07T20:15:19.693Z,13.00
2022-10-07T20:17:46.339Z,12.87
2022-10-07T20:20:14.409Z,12.82
2022-10-07T20:22:44.680Z,12.84
2022-10-07T20:25:14.842Z,12.77
2022-10-07T20:27:41.201Z,12.63
2022-10-07T20:30:17.639Z,12.71
2022-10-07T20:32:45.283Z,12.59
2022-10-07T20:35:12.210Z,12.72
2022-10-07T20:37:38.845Z,12.82
2022-10-07T20:40:24.123Z,12.79
2022-10-07T20:42:51.809Z,12.62
2022-10-07T20:45:18.302Z,12.69
2022-10-07T20:47:45.107Z,12.63
2022-10-07T20:50:11.729Z,12.51
2022-10-07T20:52:38.090Z,12.47
2022-10-07T20:55:04.708Z,12.55
2022-10-07T20:57:37.735Z,12.40
2022-10-07T21:00:15.721Z,12.33
2022-10-07T21:02:44.190Z,12.40
2022-10-07T21:05:10.726Z,12.42
2022-10-07T21:07:37.364Z,12.59
2022-10-07T21:10:03.837Z,12.46
2022-10-07T21:12:30.202Z,12.37
2022-10-07T21:15:00.367Z,12.34
2022-10-07T21:17:27.160Z,12.37
2022-10-07T21:19:55.056Z,12.36
2022-10-07T21:22:21.595Z,12.26
2022-10-07T21:24:47.911Z,12.37
2022-10-07T21:27:14.321Z,12.37
2022-10-07T21:29:41.457Z,12.30
2022-10-07T21:32:09.921Z,12.36
2022-10-07T21:34:36.749Z,12.39
2022-10-07T21:37:03.228Z,12.48
2022-10-07T21:39:29.752Z,12.44
2022-10-07T21:41:58.157Z,12.32
2022-10-07T21:44:25.256Z,12.23
2022-10-07T21:46:51.678Z,12.26
2022-10-07T21:49:18.153Z,12.18
2022-10-07T21:51:44.939Z,12.22
2022-10-07T21:54:15.879Z,12.17
2022-10-07T21:56:45.084Z,12.16
2022-10-07T21:59:12.620Z,12.21
2022-10-07T22:01:39.242Z,11.98
2022-10-07T22:04:07.116Z,12.10
2022-10-07T22:06:52.244Z,11.88
2022-10-07T22:09:20.984Z,12.10
2022-10-07T22:11:48.461Z,12.10
2022-10-07T22:14:14.792Z,12.09
2022-10-07T22:16:42.706Z,12.15
2022-10-07T22:19:10.596Z,12.10
2022-10-07T22:21:40.176Z,12.16
2022-10-07T22:24:07.889Z,12.03
2022-10-07T22:26:44.348Z,11.98
2022-10-07T22:29:11.699Z,11.93
2022-10-07T22:31:38.566Z,11.83
2022-10-07T22:34:05.935Z,11.78
2022-10-07T22:36:32.610Z,11.81
2022-10-07T22:38:59.342Z,11.86
2022-10-07T22:41:27.015Z,11.81
2022-10-07T22:43:53.720Z,11.62
2022-10-07T22:46:26.573Z,11.64
2022-10-07T22:48:56.163Z,11.64
2022-10-07T22:51:23.377Z,11.66
2022-10-07T22:53:54.943Z,11.67
2022-10-07T22:56:22.996Z,11.71
2022-10-07T22:58:52.986Z,11.57
2022-10-07T23:01:20.314Z,11.55
2022-10-07T23:03:46.915Z,11.70
2022-10-07T23:06:16.973Z,11.73
2022-10-07T23:08:44.243Z,11.66
2022-10-07T23:11:15.308Z,11.51
2022-10-07T23:13:42.087Z,11.64
2022-10-07T23:16:15.410Z,11.56
2022-10-07T23:18:44.879Z,11.12
2022-10-07T23:21:19.704Z,11.11
2022-10-07T23:23:48.075Z,10.96
2022-10-07T23:26:18.784Z,11.22
2022-10-07T23:28:46.797Z,11.29
2022-10-07T23:31:14.734Z,11.41
2022-10-07T23:33:41.374Z,11.40
2022-10-07T23:36:10.454Z,11.27
2022-10-07T23:38:38.921Z,11.22
2022-10-07T23:41:06.949Z,11.11
2022-10-07T23:43:33.786Z,11.10
2022-10-07T23:46:01.153Z,11.22
2022-10-07T23:48:27.682Z,11.27
2022-10-07T23:50:55.148Z,11.27
2022-10-07T23:53:22.562Z,11.32
2022-10-07T23:55:51.864Z,11.28
2022-10-07T23:58:21.927Z,11.20
